Home   Weather   USA   Austin   Past weeks
Flag for USA

Past Weather in Austin, Texas, USA — April 2018

Currently: 75 °F. Mild. (Weather station: Camp Mabry / Austin City, USA). See more current weather

April 2018 Weather in Austin — Graph

°F

High & Low Weather Summary for April 2018

 TemperatureHumidityPressure
High88 °F (Apr 25, 12:51 pm)94% (Apr 30, 6:41 am)30.35 "Hg (Apr 30, 6:41 am)
Low40 °F (Apr 7, 9:51 pm)14% (Apr 15, 5:51 pm)29.53 "Hg (Apr 13, 6:51 pm)
Average67 °F61%30.00 "Hg
* Reported Apr 1 12:51 am — Apr 30 11:51 pm, Austin. Weather by CustomWeather, © 2023

Note: Actual official high and low records may vary slightly from our data, if they occured in-between our weather recording intervals... More about our weather records

Austin Weather History for April 1, 2018

Scroll right to see more
 ConditionsComfort  
Time TempWeatherWind HumidityBarometerVisibility
12:51 am
Sun, Apr 1
66 °FPassing clouds.6 mph81%30.00 "Hg10 mi
1:51 am66 °FMostly cloudy.5 mph84%29.99 "Hg10 mi
2:51 am66 °FMostly cloudy.8 mph84%29.98 "Hg10 mi
3:51 am65 °FMostly cloudy.7 mph87%29.96 "Hg10 mi
4:04 am65 °FOvercast.6 mph87%29.99 "Hg10 mi
4:34 am65 °FMostly cloudy.7 mph87%29.99 "Hg10 mi
4:51 am65 °FMostly cloudy.6 mph87%29.96 "Hg10 mi
5:24 am65 °FMostly cloudy.6 mph87%29.99 "Hg10 mi
5:51 am65 °FMostly cloudy.6 mph87%29.96 "Hg10 mi
6:10 am65 °FMostly cloudy.6 mph87%29.99 "Hg10 mi
6:51 am65 °FPassing clouds.6 mph87%29.97 "Hg10 mi
7:10 am64 °FMostly cloudy.5 mph90%30.00 "Hg10 mi
7:51 am64 °FOvercast.3 mph90%29.98 "Hg10 mi
8:11 am64 °FMostly cloudy.3 mph90%30.01 "Hg10 mi
8:31 am65 °FMostly cloudy.3 mph87%30.02 "Hg10 mi
9:01 am66 °FMore clouds than sun.3 mph84%30.03 "Hg10 mi
9:51 am69 °FMore clouds than sun.6 mph76%30.00 "Hg10 mi
10:51 am71 °FOvercast.7 mph68%30.00 "Hg10 mi
11:28 am73 °FBroken clouds.6 mph66%30.03 "Hg10 mi
11:51 am73 °FOvercast.6 mph64%30.00 "Hg10 mi
12:51 pm74 °FMostly cloudy.7 mph64%29.99 "Hg10 mi
1:51 pm77 °FMostly cloudy.8 mph62%29.96 "Hg10 mi
2:51 pm79 °FPartly sunny.10 mph56%29.91 "Hg10 mi
3:51 pm81 °FScattered clouds.8 mph54%29.88 "Hg10 mi
4:51 pm81 °FPartly sunny.9 mph54%29.86 "Hg10 mi
5:51 pm80 °FPartly sunny.7 mph56%29.85 "Hg10 mi
6:51 pm79 °FPartly sunny.6 mph58%29.84 "Hg10 mi
7:51 pm78 °FPassing clouds.5 mph58%29.86 "Hg10 mi
8:51 pm75 °FPassing clouds.5 mph69%29.88 "Hg10 mi
9:51 pm73 °FClear.7 mph71%29.90 "Hg10 mi
10:51 pm71 °FClear.7 mph78%29.92 "Hg10 mi
11:51 pm69 °FPassing clouds.5 mph84%29.92 "Hg10 mi
Weather by CustomWeather, © 2023

See weather overview